Time;durP1;ratioP1;P1;durP2;ratioP2;P2;SDS_P1;SDS_P2;PMS_P1;PMS_P2;Temp;Humidity;BMP_temperature;BMP_pressure;BME280_temperature;BME280_humidity;BME280_pressure;Samples;Min_cycle;Max_cycle;Signal;HPM_P1;HPM_P2
2023/08/24 00:00:40;;;;;;;72.73;9.87;;;21.90;2.60;;;;;;5061101;28;20204;-84
2023/08/24 00:03:06;;;;;;;73.43;9.60;;;21.80;4.70;;;;;;5043695;28;20259;-85
2023/08/24 00:05:38;;;;;;;76.47;10.27;;;21.70;5.10;;;;;;5061462;28;20406;-84
2023/08/24 00:08:06;;;;;;;73.73;10.50;;;21.70;6.70;;;;;;5043401;28;20788;-85
2023/08/24 00:10:32;;;;;;;73.03;12.60;;;21.70;5.90;;;;;;5060821;28;20423;-84
2023/08/24 00:12:58;;;;;;;75.73;11.93;;;21.70;6.60;;;;;;5061994;28;20768;-85
2023/08/24 00:15:24;;;;;;;77.03;13.90;;;21.60;6.60;;;;;;5043319;28;20403;-84
2023/08/24 00:17:49;;;;;;;76.43;15.93;;;21.50;8.10;;;;;;5061909;28;20165;-85
2023/08/24 00:20:15;;;;;;;75.23;17.30;;;21.60;9.30;;;;;;5061518;28;20185;-84
2023/08/24 00:22:41;;;;;;;76.87;15.00;;;21.60;8.70;;;;;;5061036;28;20251;-84
2023/08/24 00:25:08;;;;;;;74.97;15.13;;;21.60;8.30;;;;;;5043372;28;20421;-84
2023/08/24 00:27:34;;;;;;;79.37;14.83;;;21.60;7.90;;;;;;5061043;28;20185;-84
2023/08/24 00:30:02;;;;;;;75.97;20.97;;;21.50;9.20;;;;;;5042776;28;20795;-84
2023/08/24 00:32:28;;;;;;;77.20;19.67;;;21.50;9.70;;;;;;5042916;28;20918;-84
2023/08/24 00:34:53;;;;;;;76.93;21.73;;;21.50;10.70;;;;;;5060417;28;20434;-84
2023/08/24 00:37:19;;;;;;;75.67;19.33;;;21.50;10.20;;;;;;5061411;28;20169;-84
2023/08/24 00:39:45;;;;;;;77.10;17.60;;;21.50;9.40;;;;;;5061157;28;20181;-84
2023/08/24 00:42:14;;;;;;;82.23;21.80;;;21.50;9.80;;;;;;5043170;28;20586;-84
2023/08/24 00:44:41;;;;;;;77.10;25.30;;;21.40;10.50;;;;;;5043070;28;20172;-85
2023/08/24 00:47:08;;;;;;;77.37;26.30;;;21.40;11.50;;;;;;5059989;28;20524;-84
2023/08/24 00:49:34;;;;;;;82.23;28.37;;;21.40;11.50;;;;;;5060762;28;20787;-84
2023/08/24 00:52:00;;;;;;;82.10;33.23;;;21.30;13.00;;;;;;5060402;28;20404;-84
2023/08/24 00:54:26;;;;;;;78.80;28.03;;;21.30;13.40;;;;;;5060853;28;20157;-84
2023/08/24 00:56:53;;;;;;;81.50;30.40;;;21.30;12.50;;;;;;5042822;28;20411;-84
2023/08/24 00:59:19;;;;;;;81.13;35.80;;;21.30;12.80;;;;;;5060718;28;20419;-84
2023/08/24 01:01:46;;;;;;;89.17;46.93;;;21.30;14.00;;;;;;5060644;28;20412;-84
2023/08/24 01:04:13;;;;;;;87.43;45.73;;;21.20;15.20;;;;;;5042476;28;20411;-85
2023/08/24 01:06:38;;;;;;;87.67;42.20;;;21.20;18.00;;;;;;5059975;28;20482;-85
2023/08/24 01:09:06;;;;;;;85.63;47.77;;;21.20;17.20;;;;;;5059682;28;20462;-84
2023/08/24 01:11:51;;;;;;;84.93;46.23;;;21.20;16.60;;;;;;5060973;28;20215;-85
2023/08/24 01:14:35;;;;;;;84.50;41.97;;;21.20;17.70;;;;;;5042793;28;20404;-84
2023/08/24 01:17:04;;;;;;;93.50;54.57;;;21.20;18.50;;;;;;5042582;28;20395;-84
2023/08/24 01:19:43;;;;;;;94.73;54.57;;;21.20;19.00;;;;;;5060207;28;20501;-85
2023/08/24 01:22:27;;;;;;;87.63;51.57;;;21.20;19.10;;;;;;5060502;28;20392;-84
2023/08/24 01:25:10;;;;;;;89.57;46.60;;;21.20;19.70;;;;;;5060495;28;20480;-84
2023/08/24 01:27:37;;;;;;;90.10;55.00;;;21.20;19.60;;;;;;5042903;28;20450;-84
2023/08/24 01:30:07;;;;;;;86.97;52.40;;;21.10;21.40;;;;;;5060194;28;20845;-84
2023/08/24 01:32:34;;;;;;;90.23;54.73;;;21.10;22.30;;;;;;5042216;28;20403;-84
2023/08/24 01:35:03;;;;;;;85.63;47.10;;;21.10;24.40;;;;;;5060292;28;20800;-84
2023/08/24 01:37:29;;;;;;;87.77;48.67;;;21.10;25.00;;;;;;5041801;28;20411;-84
2023/08/24 01:40:03;;;;;;;85.50;42.20;;;20.90;31.30;;;;;;5042094;28;20799;-84
2023/08/24 01:42:33;;;;;;;87.67;45.20;;;20.80;34.00;;;;;;5060270;28;20151;-84
2023/08/24 01:45:03;;;;;;;85.00;45.43;;;20.80;33.10;;;;;;5041799;28;20406;-84
2023/08/24 01:47:30;;;;;;;84.20;41.80;;;20.80;32.20;;;;;;5041781;28;20978;-84
2023/08/24 01:49:56;;;;;;;84.00;38.83;;;20.80;34.20;;;;;;5059427;28;20456;-84
2023/08/24 01:52:24;;;;;;;81.77;33.60;;;20.60;40.60;;;;;;5059287;28;20406;-84
2023/08/24 01:54:50;;;;;;;85.93;34.87;;;20.60;39.00;;;;;;5041672;28;20404;-85
2023/08/24 01:57:15;;;;;;;81.27;32.40;;;20.70;38.20;;;;;;5041508;28;20407;-84
2023/08/24 01:59:41;;;;;;;84.80;35.93;;;20.80;36.30;;;;;;5059030;28;20430;-84
2023/08/24 02:02:06;;;;;;;81.90;35.63;;;20.90;35.60;;;;;;5059680;28;20248;-84
2023/08/24 02:04:32;;;;;;;82.60;37.60;;;20.90;32.60;;;;;;5059324;28;20169;-84
2023/08/24 02:06:58;;;;;;;83.77;34.33;;;20.90;32.20;;;;;;5059724;28;20185;-84
2023/08/24 02:09:24;;;;;;;83.07;35.10;;;21.00;30.20;;;;;;5059143;28;20438;-85
2023/08/24 02:11:49;;;;;;;81.23;34.00;;;21.00;29.90;;;;;;5059366;28;20267;-84
2023/08/24 02:14:15;;;;;;;81.50;35.90;;;21.00;29.80;;;;;;5059803;28;20520;-85
2023/08/24 02:16:41;;;;;;;82.40;39.03;;;21.00;30.70;;;;;;5059297;28;20168;-84
2023/08/24 02:19:06;;;;;;;81.67;33.63;;;21.00;30.60;;;;;;5041306;28;20175;-84
2023/08/24 02:21:35;;;;;;;81.43;33.93;;;21.00;31.70;;;;;;5059306;28;20559;-84
2023/08/24 02:24:00;;;;;;;84.10;37.33;;;21.00;32.90;;;;;;5059292;28;20645;-84
2023/08/24 02:26:26;;;;;;;80.37;28.83;;;21.00;33.70;;;;;;5041701;28;20407;-84
2023/08/24 02:28:52;;;;;;;85.53;30.17;;;21.00;33.00;;;;;;5059341;28;20290;-84
2023/08/24 02:31:17;;;;;;;80.67;29.57;;;20.90;39.90;;;;;;5059395;28;20161;-85
2023/08/24 02:33:43;;;;;;;80.80;26.97;;;20.90;40.20;;;;;;5058802;28;20178;-84
2023/08/24 02:36:09;;;;;;;80.23;29.77;;;20.90;39.50;;;;;;5058553;28;20164;-84
2023/08/24 02:38:34;;;;;;;81.77;32.40;;;21.00;41.50;;;;;;5058876;28;20161;-84
2023/08/24 02:41:05;;;;;;;85.60;39.77;;;20.90;44.50;;;;;;5040468;28;20203;-84
2023/08/24 02:43:32;;;;;;;82.93;34.53;;;20.80;50.30;;;;;;5058573;28;20409;-84
2023/08/24 02:46:03;;;;;;;85.67;37.37;;;20.90;46.10;;;;;;5058678;28;20403;-84
2023/08/24 02:48:32;;;;;;;82.83;36.73;;;21.00;47.30;;;;;;5040830;28;20462;-84
2023/08/24 02:50:58;;;;;;;83.43;37.50;;;21.00;47.30;;;;;;5040793;28;20430;-84
2023/08/24 02:53:24;;;;;;;84.60;39.90;;;21.00;47.70;;;;;;5058719;28;20399;-85
2023/08/24 02:55:50;;;;;;;83.97;37.07;;;21.10;46.80;;;;;;5058120;28;20546;-84
2023/08/24 02:58:16;;;;;;;83.00;35.77;;;21.10;47.60;;;;;;5058492;28;20413;-84
2023/08/24 03:00:41;;;;;;;83.60;37.37;;;21.10;47.80;;;;;;5041102;28;20677;-84
2023/08/24 03:03:07;;;;;;;86.37;37.70;;;21.00;52.40;;;;;;5040420;28;20215;-84
2023/08/24 03:05:32;;;;;;;87.13;39.83;;;21.00;50.60;;;;;;5058968;28;20169;-84
2023/08/24 03:07:58;;;;;;;85.70;40.63;;;21.00;53.60;;;;;;5058086;28;20188;-84
2023/08/24 03:10:25;;;;;;;100.67;63.93;;;21.00;58.10;;;;;;5039985;28;20572;-84
2023/08/24 03:12:50;;;;;;;95.03;68.00;;;20.70;63.50;;;;;;5058505;28;20411;-84
2023/08/24 03:15:16;;;;;;;89.87;57.33;;;20.80;63.90;;;;;;5058433;28;20403;-84
2023/08/24 03:17:42;;;;;;;89.47;48.53;;;20.90;59.80;;;;;;5058520;28;20165;-84
2023/08/24 03:20:08;;;;;;;86.03;48.10;;;20.90;58.00;;;;;;5058272;28;20441;-84
2023/08/24 03:22:34;;;;;;;86.93;43.73;;;21.00;56.50;;;;;;5058355;28;20236;-84
2023/08/24 03:25:00;;;;;;;85.57;41.20;;;21.00;55.60;;;;;;5058312;28;20572;-84
2023/08/24 03:27:26;;;;;;;91.07;46.87;;;21.00;56.30;;;;;;5058181;28;20447;-84
2023/08/24 03:29:54;;;;;;;86.93;46.87;;;21.00;54.80;;;;;;5058184;28;20231;-85
2023/08/24 03:32:20;;;;;;;83.57;40.50;;;21.00;57.70;;;;;;5061852;28;20222;-84
2023/08/24 03:34:45;;;;;;;84.30;42.50;;;21.10;54.30;;;;;;5044113;28;20744;-84
2023/08/24 03:37:11;;;;;;;100.80;66.43;;;21.10;54.50;;;;;;5061895;28;20223;-84
2023/08/24 03:39:38;;;;;;;90.80;48.53;;;21.10;56.40;;;;;;5061653;28;20196;-84
2023/08/24 03:42:05;;;;;;;102.00;60.43;;;21.10;57.80;;;;;;5043600;28;20183;-84
2023/08/24 03:44:31;;;;;;;88.07;49.30;;;21.10;55.10;;;;;;5043410;28;20473;-84
2023/08/24 03:46:56;;;;;;;82.57;32.33;;;21.10;56.70;;;;;;5061647;28;20459;-84
2023/08/24 03:49:22;;;;;;;82.40;35.53;;;21.10;52.30;;;;;;5061389;28;20223;-84
2023/08/24 03:51:49;;;;;;;84.00;40.77;;;21.00;56.80;;;;;;5044147;28;20263;-84
2023/08/24 03:54:14;;;;;;;84.07;38.50;;;20.90;58.90;;;;;;5043476;28;20181;-84
2023/08/24 03:56:40;;;;;;;85.83;42.87;;;20.90;56.00;;;;;;5061226;28;20454;-84
2023/08/24 03:59:05;;;;;;;83.80;39.77;;;20.80;57.50;;;;;;5061188;28;20171;-84
2023/08/24 04:01:31;;;;;;;88.60;42.47;;;20.90;56.30;;;;;;5061302;28;20161;-84
2023/08/24 04:03:57;;;;;;;83.37;35.77;;;20.90;56.00;;;;;;5043170;28;20188;-83
2023/08/24 04:06:23;;;;;;;88.53;48.80;;;20.80;58.00;;;;;;5043373;28;20171;-84
2023/08/24 04:08:49;;;;;;;88.50;47.23;;;20.90;58.00;;;;;;5042494;28;20470;-84
2023/08/24 04:11:15;;;;;;;89.63;49.83;;;20.90;57.50;;;;;;5061219;28;20400;-84
2023/08/24 04:13:40;;;;;;;97.10;60.57;;;20.90;56.90;;;;;;5061213;28;20171;-84
2023/08/24 04:16:06;;;;;;;86.37;45.60;;;20.90;56.20;;;;;;5061387;28;20505;-84
2023/08/24 04:18:32;;;;;;;86.00;41.90;;;20.90;57.50;;;;;;5061837;28;20177;-84
2023/08/24 04:20:57;;;;;;;90.00;50.83;;;20.80;58.90;;;;;;5061129;28;20195;-84
2023/08/24 04:23:26;;;;;;;86.30;48.17;;;20.80;57.40;;;;;;5043369;28;20180;-84
2023/08/24 04:25:53;;;;;;;90.07;55.33;;;20.80;58.20;;;;;;5061134;28;20249;-84
2023/08/24 04:28:19;;;;;;;93.37;63.97;;;20.80;59.00;;;;;;5042951;28;20451;-84
2023/08/24 04:30:57;;;;;;;106.80;88.47;;;20.80;60.60;;;;;;5060489;28;20458;-84
2023/08/24 04:33:29;;;;;;;111.47;89.33;;;20.80;62.60;;;;;;5042120;28;20405;-84
2023/08/24 04:35:54;;;;;;;103.57;81.17;;;20.70;74.80;;;;;;5059761;28;20413;-84
2023/08/24 04:38:20;;;;;;;100.03;84.33;;;20.60;77.00;;;;;;5059298;28;20497;-84
2023/08/24 04:40:51;;;;;;;100.57;87.17;;;20.50;89.80;;;;;;5059700;28;20530;-84
2023/08/24 04:43:17;;;;;;;106.83;95.30;;;20.40;92.60;;;;;;5059220;28;20165;-84
2023/08/24 04:45:42;;;;;;;107.13;85.40;;;20.30;96.70;;;;;;5041405;28;20425;-84
2023/08/24 04:48:08;;;;;;;106.53;95.03;;;20.30;98.80;;;;;;5041648;28;20446;-84
2023/08/24 04:50:34;;;;;;;105.83;94.30;;;20.20;99.90;;;;;;5059745;28;20181;-85
2023/08/24 04:52:59;;;;;;;105.00;92.97;;;20.20;99.90;;;;;;5060172;28;20171;-85
2023/08/24 04:55:25;;;;;;;104.10;83.77;;;20.20;99.90;;;;;;5060166;28;20171;-86
2023/08/24 04:57:51;;;;;;;106.00;81.23;;;20.10;99.90;;;;;;5060394;28;20172;-86
2023/08/24 05:00:17;;;;;;;102.53;85.27;;;20.10;99.90;;;;;;5060721;28;20548;-86
2023/08/24 05:02:43;;;;;;;111.70;89.23;;;20.00;99.90;;;;;;5059819;28;20182;-86
2023/08/24 05:05:10;;;;;;;102.83;75.83;;;20.00;99.90;;;;;;5059397;28;20924;-86
2023/08/24 05:07:39;;;;;;;99.97;59.97;;;20.00;99.90;;;;;;5059953;28;20502;-86
2023/08/24 05:10:05;;;;;;;104.47;67.37;;;20.00;99.90;;;;;;5059508;28;20444;-86
2023/08/24 05:12:32;;;;;;;97.90;58.03;;;20.00;99.90;;;;;;5059095;28;20399;-86
2023/08/24 05:14:57;;;;;;;100.87;68.67;;;20.00;99.90;;;;;;5058328;28;20404;-86
2023/08/24 05:17:27;;;;;;;103.57;68.07;;;20.00;99.90;;;;;;5058731;28;20409;-86
2023/08/24 05:19:56;;;;;;;98.43;63.97;;;20.00;99.90;;;;;;5057674;28;20185;-86
2023/08/24 05:22:22;;;;;;;97.03;69.17;;;20.00;99.90;;;;;;5057792;28;20397;-86
2023/08/24 05:24:51;;;;;;;97.17;66.90;;;20.00;99.90;;;;;;5039351;28;20414;-85
2023/08/24 05:27:16;;;;;;;106.67;80.60;;;19.90;99.90;;;;;;5039664;28;20630;-86
2023/08/24 05:29:43;;;;;;;106.17;87.63;;;19.90;99.90;;;;;;5057059;28;20518;-85
2023/08/24 05:32:08;;;;;;;106.17;80.90;;;19.80;99.90;;;;;;5057294;28;20207;-86
2023/08/24 05:34:34;;;;;;;104.17;85.63;;;19.90;99.90;;;;;;5057545;28;20403;-86
2023/08/24 05:37:00;;;;;;;112.90;84.93;;;19.90;99.90;;;;;;5057269;28;20527;-86
2023/08/24 05:39:25;;;;;;;101.80;79.53;;;19.90;99.90;;;;;;5057276;28;20189;-86
2023/08/24 05:41:52;;;;;;;103.00;81.20;;;19.90;99.90;;;;;;5055444;28;20161;-85
2023/08/24 05:44:18;;;;;;;105.20;80.90;;;19.90;99.90;;;;;;5057113;28;20169;-85
2023/08/24 05:46:45;;;;;;;102.27;68.83;;;20.00;99.90;;;;;;5022416;28;20435;-85
2023/08/24 05:49:11;;;;;;;98.93;72.23;;;20.00;99.90;;;;;;5038467;28;20431;-86
2023/08/24 05:51:37;;;;;;;95.50;59.43;;;20.00;99.90;;;;;;5038704;28;20407;-85
2023/08/24 05:54:02;;;;;;;95.63;55.63;;;20.00;99.90;;;;;;5056269;28;20168;-85
2023/08/24 05:56:28;;;;;;;91.37;48.00;;;20.00;99.90;;;;;;5057198;28;20187;-85
2023/08/24 05:58:54;;;;;;;92.73;50.63;;;20.10;99.90;;;;;;5056752;28;20165;-85
2023/08/24 06:01:20;;;;;;;93.27;50.97;;;20.10;99.90;;;;;;5056756;28;20171;-85
2023/08/24 06:03:46;;;;;;;90.97;47.23;;;20.10;99.90;;;;;;5057270;28;20976;-85
2023/08/24 06:06:12;;;;;;;87.47;45.70;;;20.10;99.90;;;;;;5041021;28;20178;-86
2023/08/24 06:08:37;;;;;;;87.30;38.67;;;20.10;99.90;;;;;;5040576;28;20264;-86
2023/08/24 06:11:06;;;;;;;88.93;47.07;;;20.10;99.90;;;;;;5058902;28;20184;-85
2023/08/24 06:13:35;;;;;;;87.10;44.80;;;20.10;99.90;;;;;;5058244;28;20161;-85
2023/08/24 06:16:01;;;;;;;87.20;41.30;;;20.10;99.90;;;;;;5041032;28;20409;-85
2023/08/24 06:18:27;;;;;;;88.13;43.50;;;20.20;99.90;;;;;;5059212;28;20399;-86
2023/08/24 06:20:54;;;;;;;90.37;43.97;;;20.10;99.90;;;;;;5059240;28;20422;-86
2023/08/24 06:23:21;;;;;;;87.80;45.93;;;20.20;99.90;;;;;;5059251;28;20406;-86
2023/08/24 06:25:47;;;;;;;88.33;43.20;;;20.20;99.90;;;;;;5059951;28;20764;-86
2023/08/24 06:28:13;;;;;;;90.63;43.83;;;20.20;99.90;;;;;;5059298;28;20446;-85
2023/08/24 06:30:40;;;;;;;86.90;43.97;;;20.40;99.90;;;;;;5059552;28;20461;-85
2023/08/24 06:33:07;;;;;;;86.97;44.60;;;20.50;99.90;;;;;;5059654;28;20410;-86
2023/08/24 06:35:36;;;;;;;87.87;41.60;;;20.50;99.90;;;;;;5059633;28;20421;-85
2023/08/24 06:38:03;;;;;;;93.73;44.67;;;20.70;99.90;;;;;;5042103;28;20421;-85
2023/08/24 06:40:29;;;;;;;84.30;41.93;;;20.70;99.90;;;;;;5059361;28;20506;-86
2023/08/24 06:42:55;;;;;;;86.07;41.77;;;20.90;99.90;;;;;;5041478;28;20414;-86
2023/08/24 06:45:20;;;;;;;89.77;42.67;;;20.90;99.90;;;;;;5041282;28;20425;-86
2023/08/24 06:47:46;;;;;;;87.30;43.67;;;20.80;99.90;;;;;;5058822;28;20227;-86
2023/08/24 06:50:12;;;;;;;87.80;42.47;;;20.90;99.90;;;;;;5040802;28;20193;-86
2023/08/24 06:52:38;;;;;;;84.57;40.83;;;21.00;99.90;;;;;;5058870;28;20222;-86
2023/08/24 06:55:04;;;;;;;94.80;49.07;;;20.90;99.90;;;;;;5059622;28;20409;-86
2023/08/24 06:57:30;;;;;;;85.23;40.80;;;20.90;99.90;;;;;;5058694;28;20166;-85
2023/08/24 06:59:55;;;;;;;88.73;47.67;;;20.90;99.90;;;;;;5058803;28;20420;-86
2023/08/24 07:02:21;;;;;;;90.00;48.83;;;20.90;99.90;;;;;;5041105;28;20218;-85
2023/08/24 07:04:47;;;;;;;84.93;42.53;;;21.00;99.90;;;;;;5041438;28;20172;-86
2023/08/24 07:07:13;;;;;;;85.20;37.20;;;21.00;99.90;;;;;;5044355;28;20200;-86
2023/08/24 07:09:39;;;;;;;91.53;43.90;;;21.00;99.90;;;;;;5044561;28;20646;-85
2023/08/24 07:12:07;;;;;;;86.00;37.53;;;21.00;99.90;;;;;;5063199;28;20161;-86
2023/08/24 07:14:33;;;;;;;88.03;41.27;;;21.00;99.90;;;;;;5063088;28;20185;-85
2023/08/24 07:16:59;;;;;;;90.47;54.93;;;21.10;99.90;;;;;;5044676;28;20787;-85
2023/08/24 07:19:24;;;;;;;92.50;59.13;;;21.20;99.90;;;;;;5045235;28;20437;-85
2023/08/24 07:21:50;;;;;;;93.20;65.43;;;21.20;99.90;;;;;;5062666;28;20395;-85
2023/08/24 07:24:19;;;;;;;98.47;75.17;;;21.20;99.90;;;;;;5044391;28;20200;-85
2023/08/24 07:26:45;;;;;;;99.63;76.23;;;21.30;99.90;;;;;;5062008;28;20161;-86
2023/08/24 07:29:11;;;;;;;97.40;71.80;;;21.20;99.90;;;;;;5062104;28;20435;-85
2023/08/24 07:31:37;;;;;;;96.23;74.60;;;21.20;99.90;;;;;;5061468;28;20415;-85
2023/08/24 07:34:03;;;;;;;101.07;75.17;;;21.30;99.90;;;;;;5062163;28;20399;-86
2023/08/24 07:36:30;;;;;;;101.20;85.53;;;21.30;99.90;;;;;;5062873;28;20183;-85
2023/08/24 07:38:56;;;;;;;108.00;83.63;;;21.40;99.90;;;;;;5062197;28;20399;-85
2023/08/24 07:41:24;;;;;;;101.70;83.73;;;21.50;99.90;;;;;;5062236;28;20403;-85
2023/08/24 07:43:50;;;;;;;98.40;78.97;;;21.60;99.90;;;;;;5062397;28;20461;-85
2023/08/24 07:46:16;;;;;;;103.97;88.00;;;21.70;99.90;;;;;;5044411;28;20407;-85
2023/08/24 07:48:42;;;;;;;99.77;80.07;;;21.80;99.90;;;;;;5061789;28;20605;-85
2023/08/24 07:51:08;;;;;;;99.20;82.00;;;21.90;99.90;;;;;;5062030;28;20180;-86
2023/08/24 07:53:34;;;;;;;99.53;76.23;;;22.00;99.90;;;;;;5043106;28;20161;-85
2023/08/24 07:56:01;;;;;;;93.07;61.93;;;22.00;99.90;;;;;;5061446;28;20461;-85
2023/08/24 07:58:27;;;;;;;95.97;68.47;;;22.10;99.90;;;;;;5062439;28;20181;-85
2023/08/24 08:00:53;;;;;;;94.80;64.70;;;22.20;99.90;;;;;;5061484;28;20423;-85
2023/08/24 08:03:20;;;;;;;97.57;78.63;;;22.20;99.90;;;;;;5061977;28;20728;-85
2023/08/24 08:05:49;;;;;;;99.60;68.03;;;22.30;99.90;;;;;;5060971;28;20176;-85
2023/08/24 08:08:14;;;;;;;89.60;40.00;;;22.50;99.90;;;;;;5060755;28;20443;-85
2023/08/24 08:10:41;;;;;;;82.80;32.77;;;22.50;99.90;;;;;;5043328;28;20446;-85
2023/08/24 08:13:07;;;;;;;85.40;32.90;;;22.70;99.90;;;;;;5060897;28;20168;-85
2023/08/24 08:15:33;;;;;;;81.77;26.83;;;22.70;99.90;;;;;;5060902;28;20406;-85
2023/08/24 08:17:59;;;;;;;77.87;20.07;;;22.80;99.90;;;;;;5042001;28;20410;-85
2023/08/24 08:20:24;;;;;;;74.40;12.60;;;22.90;99.90;;;;;;5060272;28;20212;-85
2023/08/24 08:22:50;;;;;;;76.60;15.07;;;23.00;99.90;;;;;;5060644;28;20180;-85
2023/08/24 08:25:21;;;;;;;81.57;31.53;;;23.20;98.50;;;;;;5061323;28;20172;-85
2023/08/24 08:27:48;;;;;;;81.27;31.07;;;23.20;99.90;;;;;;5043014;28;20199;-85
2023/08/24 08:30:14;;;;;;;75.17;17.30;;;23.30;99.90;;;;;;5060947;28;20886;-85
2023/08/24 08:32:40;;;;;;;79.43;23.90;;;23.40;97.30;;;;;;5060565;28;20759;-85
2023/08/24 08:35:06;;;;;;;85.07;35.10;;;23.50;98.00;;;;;;5156267;22;20483;-84
2023/08/24 08:37:32;;;;;;;74.30;13.30;;;23.60;98.40;;;;;;5064473;28;20260;-84
2023/08/24 08:39:58;;;;;;;76.53;16.20;;;23.70;95.60;;;;;;5065529;28;20415;-84
2023/08/24 08:42:24;;;;;;;76.80;21.30;;;23.80;91.20;;;;;;5065881;28;20168;-84
2023/08/24 08:44:54;;;;;;;77.80;19.80;;;24.00;75.60;;;;;;5125373;22;20506;-84
2023/08/24 08:47:21;;;;;;;75.33;16.40;;;24.10;51.90;;;;;;5067090;28;20454;-84
2023/08/24 08:49:49;;;;;;;75.93;16.17;;;24.00;49.90;;;;;;5066839;28;20430;-84
2023/08/24 08:52:17;;;;;;;74.80;17.53;;;24.00;42.90;;;;;;5047887;28;20787;-85
2023/08/24 08:54:43;;;;;;;77.03;18.63;;;24.10;47.40;;;;;;5048501;28;20411;-84
2023/08/24 08:57:13;;;;;;;77.03;14.23;;;24.20;50.50;;;;;;5067302;28;20399;-84
2023/08/24 08:59:41;;;;;;;77.20;12.90;;;24.20;37.90;;;;;;5123262;22;20299;-85
2023/08/24 09:02:47;;;;;;;74.77;14.13;;;24.30;35.40;;;;;;5059682;28;20422;-84
2023/08/24 09:05:57;;;;;;;76.83;17.27;;;24.50;39.20;;;;;;5039044;28;20406;-85
2023/08/24 09:08:56;;;;;;;71.37;6.07;;;24.80;35.80;;;;;;5041781;28;20810;-85
2023/08/24 09:11:46;;;;;;;;;;;;;;;;;;;;;
2023/08/24 09:14:48;;;;;;;;;;;;;;;;;;;;;
2023/08/24 09:17:32;;;;;;;71.80;5.77;;;25.00;1.00;;;;;;5156209;22;20550;-85
2023/08/24 09:28:42;;;;;;;70.70;7.20;;;25.30;1.00;;;;;;5237008;22;20488;-83
2023/08/24 09:31:44;;;;;;;72.23;9.37;;;25.60;1.00;;;;;;4963834;28;20208;-84
2023/08/24 09:40:07;;;;;;;74.57;17.37;;;25.90;1.00;;;;;;5231325;22;20233;-84
2023/08/24 09:43:25;;;;;;;78.77;23.87;;;26.10;1.00;;;;;;5038739;28;20406;-84
2023/08/24 09:46:13;;;;;;;81.30;30.20;;;26.10;1.00;;;;;;5038851;28;20905;-84
2023/08/24 09:49:20;;;;;;;;;;;;;;;;;;;;;
2023/08/24 10:00:38;;;;;;;71.47;6.30;;;26.40;1.00;;;;;;5250196;22;20998;-84
2023/08/24 10:06:29;;;;;;;71.37;4.60;;;26.70;1.00;;;;;;5026477;28;20411;-84
2023/08/24 10:09:04;;;;;;;70.40;4.57;;;26.80;1.00;;;;;;5043836;28;20436;-83
2023/08/24 10:11:55;;;;;;;72.67;4.90;;;27.00;1.00;;;;;;5025812;28;20911;-84
2023/08/24 10:14:35;;;;;;;71.70;4.30;;;27.00;1.00;;;;;;5206786;23;20532;-82
2023/08/24 10:17:03;;;;;;;76.93;5.30;;;27.20;1.00;;;;;;5042559;28;20388;-82
2023/08/24 10:19:30;;;;;;;74.10;5.20;;;27.30;1.00;;;;;;5046383;28;20420;-82
2023/08/24 10:21:57;;;;;;;71.27;5.67;;;27.30;1.00;;;;;;5046931;28;20451;-80
2023/08/24 10:24:23;;;;;;;73.87;6.60;;;27.40;1.00;;;;;;5046760;28;20490;-80
2023/08/24 10:26:49;;;;;;;72.60;5.33;;;27.40;1.00;;;;;;5027460;28;20408;-80
2023/08/24 10:29:16;;;;;;;71.60;6.80;;;27.50;1.00;;;;;;5045421;28;20420;-80
2023/08/24 10:31:43;;;;;;;76.10;7.80;;;27.60;1.00;;;;;;5028104;28;20939;-80
2023/08/24 10:34:10;;;;;;;74.70;7.67;;;27.70;1.00;;;;;;5028204;28;20409;-80
2023/08/24 10:36:39;;;;;;;74.87;9.10;;;27.70;1.00;;;;;;5029241;28;20415;-80
2023/08/24 10:39:06;;;;;;;73.30;9.20;;;27.60;1.00;;;;;;5046280;28;20585;-80
2023/08/24 10:41:49;;;;;;;72.30;6.50;;;27.60;1.00;;;;;;5028193;28;20415;-80
2023/08/24 10:44:24;;;;;;;77.27;11.37;;;27.70;1.00;;;;;;5046082;28;20412;-80
2023/08/24 10:47:16;;;;;;;73.50;10.90;;;27.90;1.00;;;;;;5046931;28;20411;-80
2023/08/24 10:49:57;;;;;;;74.77;11.00;;;27.90;1.00;;;;;;5029339;28;20445;-80
2023/08/24 10:52:36;;;;;;;74.30;9.30;;;27.90;1.00;;;;;;5047163;28;20388;-80
2023/08/24 10:55:03;;;;;;;78.00;7.80;;;27.70;1.00;;;;;;5047177;28;20388;-80
2023/08/24 10:57:41;;;;;;;80.87;12.30;;;27.60;1.00;;;;;;5028513;28;20411;-80
2023/08/24 11:00:09;;;;;;;75.83;13.17;;;27.60;1.00;;;;;;5045918;28;20415;-80
2023/08/24 11:02:42;;;;;;;73.20;8.70;;;27.90;1.00;;;;;;5045455;28;20398;-80
2023/08/24 11:05:15;;;;;;;71.90;4.60;;;27.90;1.00;;;;;;5046016;28;20491;-80
2023/08/24 11:07:54;;;;;;;72.77;6.90;;;27.80;1.00;;;;;;5029501;28;20508;-80
2023/08/24 11:10:22;;;;;;;73.83;5.93;;;27.60;1.00;;;;;;5028087;28;20491;-80
2023/08/24 11:13:16;;;;;;;72.90;10.40;;;27.50;1.00;;;;;;5045048;28;20407;-80
2023/08/24 11:15:43;;;;;;;73.23;4.63;;;27.50;1.00;;;;;;5028022;28;20443;-80
2023/08/24 11:18:26;;;;;;;74.00;7.80;;;27.50;1.00;;;;;;5045200;28;20475;-80
2023/08/24 11:20:53;;;;;;;73.77;10.17;;;27.40;1.00;;;;;;5028149;28;20451;-80
2023/08/24 11:23:20;;;;;;;73.80;8.10;;;27.40;1.00;;;;;;5027222;28;20408;-80
2023/08/24 11:25:47;;;;;;;72.87;6.10;;;27.40;1.00;;;;;;5045088;28;20451;-80
2023/08/24 11:28:19;;;;;;;76.67;7.47;;;27.40;1.00;;;;;;5027264;28;20436;-80
2023/08/24 11:30:46;;;;;;;73.20;12.97;;;27.30;1.00;;;;;;5026967;28;20431;-80
2023/08/24 11:33:13;;;;;;;73.27;10.47;;;27.20;1.00;;;;;;5043678;28;20398;-80
2023/08/24 11:35:42;;;;;;;74.10;11.20;;;27.20;1.00;;;;;;5025672;28;20408;-80
2023/08/24 11:38:08;;;;;;;78.87;13.87;;;27.20;1.00;;;;;;5043786;28;20408;-80
2023/08/24 11:40:34;;;;;;;74.00;11.97;;;27.10;1.00;;;;;;5043477;28;20430;-80
2023/08/24 11:43:00;;;;;;;76.67;10.60;;;27.00;1.00;;;;;;5045122;28;20157;-80
2023/08/24 11:45:36;;;;;;;72.47;8.60;;;27.00;1.00;;;;;;5045192;28;20637;-79
2023/08/24 11:48:04;;;;;;;75.37;9.70;;;26.80;1.00;;;;;;5026310;28;20248;-80
2023/08/24 11:50:30;;;;;;;72.10;10.10;;;26.70;1.00;;;;;;5027250;28;20432;-80
2023/08/24 11:52:56;;;;;;;78.60;8.53;;;26.60;1.00;;;;;;5029201;28;20496;-80
2023/08/24 11:55:23;;;;;;;70.47;4.83;;;26.70;1.00;;;;;;5030546;28;20419;-79
2023/08/24 11:57:49;;;;;;;72.70;4.83;;;26.80;1.00;;;;;;5048459;28;20546;-79
2023/08/24 12:00:16;;;;;;;71.00;5.00;;;26.80;1.00;;;;;;5030189;28;20435;-80
2023/08/24 12:02:43;;;;;;;77.07;5.50;;;26.80;1.00;;;;;;5048544;28;20461;-80
2023/08/24 12:05:23;;;;;;;71.73;4.77;;;26.80;1.00;;;;;;5030758;28;20431;-79
2023/08/24 12:07:51;;;;;;;77.10;17.00;;;27.00;1.00;;;;;;5047666;28;20439;-79
2023/08/24 12:10:17;;;;;;;70.10;4.37;;;27.00;1.00;;;;;;5045775;28;20523;-80
2023/08/24 12:12:42;;;;;;;75.20;4.97;;;27.00;1.00;;;;;;5030315;28;20423;-80
2023/08/24 12:15:15;;;;;;;70.50;4.47;;;26.90;1.00;;;;;;5048147;28;20440;-80
2023/08/24 12:17:45;;;;;;;70.97;6.47;;;26.70;1.00;;;;;;5047427;28;20145;-80
2023/08/24 12:20:18;;;;;;;71.60;4.43;;;26.80;1.00;;;;;;5046440;28;20520;-80
2023/08/24 12:22:44;;;;;;;74.47;14.40;;;26.70;1.00;;;;;;5046977;28;20435;-80
2023/08/24 12:25:09;;;;;;;80.37;21.27;;;26.70;1.00;;;;;;5046160;28;20404;-80
2023/08/24 12:27:35;;;;;;;77.70;22.97;;;26.70;1.00;;;;;;5046000;28;20196;-80
2023/08/24 12:30:05;;;;;;;77.47;17.53;;;26.70;1.00;;;;;;5045728;28;20256;-80
2023/08/24 12:32:44;;;;;;;79.10;20.27;;;26.50;12.50;;;;;;5047546;28;20689;-79
2023/08/24 12:35:10;;;;;;;73.50;9.07;;;26.50;17.20;;;;;;5048997;28;20400;-79
2023/08/24 12:37:36;;;;;;;72.97;9.23;;;26.40;26.90;;;;;;5047972;28;20439;-80
2023/08/24 12:40:05;;;;;;;79.50;14.77;;;26.10;54.80;;;;;;5049731;28;20566;-80
2023/08/24 12:42:31;;;;;;;81.33;21.03;;;26.00;72.20;;;;;;5048888;28;20403;-79
2023/08/24 12:44:57;;;;;;;81.63;22.40;;;25.80;84.50;;;;;;5030825;28;20410;-79
2023/08/24 12:47:23;;;;;;;77.17;23.10;;;25.50;91.80;;;;;;5047196;28;20449;-79
2023/08/24 12:49:50;;;;;;;77.07;17.60;;;25.40;94.90;;;;;;5044622;28;20286;-79
2023/08/24 12:52:16;;;;;;;76.60;17.13;;;25.30;99.90;;;;;;5029198;28;20168;-79
2023/08/24 12:54:42;;;;;;;77.90;14.33;;;25.10;99.90;;;;;;5029387;28;20411;-79
2023/08/24 12:57:08;;;;;;;78.47;15.73;;;25.00;99.90;;;;;;5046508;28;20439;-79
2023/08/24 12:59:34;;;;;;;78.47;20.30;;;25.00;99.90;;;;;;5028608;28;20769;-79
2023/08/24 13:02:00;;;;;;;78.53;18.70;;;25.00;99.90;;;;;;5028135;28;20175;-79
2023/08/24 13:04:28;;;;;;;77.67;19.83;;;25.20;99.90;;;;;;5026619;28;20184;-79
2023/08/24 13:06:53;;;;;;;79.60;20.00;;;25.10;99.90;;;;;;5028659;28;20176;-79